sensor_id;sensor_type;location;lat;lon;timestamp;temperature;humidity
26326;DHT22;14032;52.510;7.342;2023-08-21T00:01:18;17.60;99.90
26326;DHT22;14032;52.510;7.342;2023-08-21T00:03:44;17.60;99.90
26326;DHT22;14032;52.510;7.342;2023-08-21T00:06:10;17.50;99.90
26326;DHT22;14032;52.510;7.342;2023-08-21T00:08:35;17.40;99.90
26326;DHT22;14032;52.510;7.342;2023-08-21T00:11:01;17.40;99.90
26326;DHT22;14032;52.510;7.342;2023-08-21T00:13:26;17.40;99.90
26326;DHT22;14032;52.510;7.342;2023-08-21T00:15:52;17.30;99.90
26326;DHT22;14032;52.510;7.342;2023-08-21T00:18:18;17.30;99.90
26326;DHT22;14032;52.510;7.342;2023-08-21T00:20:43;17.30;99.90
26326;DHT22;14032;52.510;7.342;2023-08-21T00:23:09;17.30;99.90
26326;DHT22;14032;52.510;7.342;2023-08-21T00:25:35;17.20;99.90
26326;DHT22;14032;52.510;7.342;2023-08-21T00:28:00;17.20;99.90
26326;DHT22;14032;52.510;7.342;2023-08-21T00:30:26;17.20;99.90
26326;DHT22;14032;52.510;7.342;2023-08-21T00:32:52;17.20;99.90
26326;DHT22;14032;52.510;7.342;2023-08-21T00:35:17;17.20;99.90
26326;DHT22;14032;52.510;7.342;2023-08-21T00:37:43;17.20;99.90
26326;DHT22;14032;52.510;7.342;2023-08-21T00:40:09;17.20;99.90
26326;DHT22;14032;52.510;7.342;2023-08-21T00:42:34;17.20;99.90
26326;DHT22;14032;52.510;7.342;2023-08-21T00:45:00;17.30;99.90
26326;DHT22;14032;52.510;7.342;2023-08-21T00:47:25;17.20;99.90
26326;DHT22;14032;52.510;7.342;2023-08-21T00:49:51;17.20;99.90
26326;DHT22;14032;52.510;7.342;2023-08-21T00:52:17;17.20;99.90
26326;DHT22;14032;52.510;7.342;2023-08-21T00:54:43;17.20;99.90
26326;DHT22;14032;52.510;7.342;2023-08-21T00:57:10;17.30;99.90
26326;DHT22;14032;52.510;7.342;2023-08-21T00:59:37;17.20;99.90
26326;DHT22;14032;52.510;7.342;2023-08-21T01:02:02;17.20;99.90
26326;DHT22;14032;52.510;7.342;2023-08-21T01:04:28;17.20;99.90
26326;DHT22;14032;52.510;7.342;2023-08-21T01:06:54;17.20;99.90
26326;DHT22;14032;52.510;7.342;2023-08-21T01:15:00;17.10;99.90
26326;DHT22;14032;52.510;7.342;2023-08-21T01:17:28;17.00;99.90
26326;DHT22;14032;52.510;7.342;2023-08-21T01:19:54;17.00;99.90
26326;DHT22;14032;52.510;7.342;2023-08-21T01:22:24;17.00;99.90
26326;DHT22;14032;52.510;7.342;2023-08-21T01:24:50;17.00;99.90
26326;DHT22;14032;52.510;7.342;2023-08-21T01:27:15;17.00;99.90
26326;DHT22;14032;52.510;7.342;2023-08-21T01:29:42;17.10;99.90
26326;DHT22;14032;52.510;7.342;2023-08-21T01:34:51;17.20;99.90
26326;DHT22;14032;52.510;7.342;2023-08-21T01:37:18;17.20;99.90
26326;DHT22;14032;52.510;7.342;2023-08-21T01:39:44;17.20;99.90
26326;DHT22;14032;52.510;7.342;2023-08-21T01:42:10;17.20;99.90
26326;DHT22;14032;52.510;7.342;2023-08-21T01:44:36;17.20;99.90
26326;DHT22;14032;52.510;7.342;2023-08-21T01:47:02;17.10;99.90
26326;DHT22;14032;52.510;7.342;2023-08-21T01:49:27;17.10;99.90
26326;DHT22;14032;52.510;7.342;2023-08-21T01:51:53;17.20;99.90
26326;DHT22;14032;52.510;7.342;2023-08-21T01:54:18;17.20;99.90
26326;DHT22;14032;52.510;7.342;2023-08-21T01:56:44;17.20;99.90
26326;DHT22;14032;52.510;7.342;2023-08-21T01:59:09;17.10;99.90
26326;DHT22;14032;52.510;7.342;2023-08-21T02:01:35;17.10;99.90
26326;DHT22;14032;52.510;7.342;2023-08-21T02:04:01;17.10;99.90
26326;DHT22;14032;52.510;7.342;2023-08-21T02:06:26;17.20;99.90
26326;DHT22;14032;52.510;7.342;2023-08-21T02:08:52;17.10;99.90
26326;DHT22;14032;52.510;7.342;2023-08-21T02:11:17;17.10;99.90
26326;DHT22;14032;52.510;7.342;2023-08-21T02:13:43;17.10;99.90
26326;DHT22;14032;52.510;7.342;2023-08-21T02:16:08;17.00;99.90
26326;DHT22;14032;52.510;7.342;2023-08-21T02:18:34;17.00;99.90
26326;DHT22;14032;52.510;7.342;2023-08-21T02:21:00;17.00;99.90
26326;DHT22;14032;52.510;7.342;2023-08-21T02:23:26;17.00;99.90
26326;DHT22;14032;52.510;7.342;2023-08-21T02:25:52;17.00;99.90
26326;DHT22;14032;52.510;7.342;2023-08-21T02:28:18;17.00;99.90
26326;DHT22;14032;52.510;7.342;2023-08-21T02:30:44;17.00;99.90
26326;DHT22;14032;52.510;7.342;2023-08-21T02:33:10;17.00;99.90
26326;DHT22;14032;52.510;7.342;2023-08-21T02:35:36;17.00;99.90
26326;DHT22;14032;52.510;7.342;2023-08-21T02:38:01;17.00;99.90
26326;DHT22;14032;52.510;7.342;2023-08-21T02:40:27;17.00;99.90
26326;DHT22;14032;52.510;7.342;2023-08-21T02:42:53;17.00;99.90
26326;DHT22;14032;52.510;7.342;2023-08-21T02:45:18;17.00;99.90
26326;DHT22;14032;52.510;7.342;2023-08-21T02:47:44;17.00;99.90
26326;DHT22;14032;52.510;7.342;2023-08-21T02:50:10;17.00;99.90
26326;DHT22;14032;52.510;7.342;2023-08-21T02:52:36;17.00;99.90
26326;DHT22;14032;52.510;7.342;2023-08-21T02:55:03;17.00;99.90
26326;DHT22;14032;52.510;7.342;2023-08-21T02:57:30;17.10;99.90
26326;DHT22;14032;52.510;7.342;2023-08-21T02:59:55;17.00;99.90
26326;DHT22;14032;52.510;7.342;2023-08-21T03:02:21;17.10;99.90
26326;DHT22;14032;52.510;7.342;2023-08-21T03:04:47;17.10;99.90
26326;DHT22;14032;52.510;7.342;2023-08-21T03:07:13;17.10;99.90
26326;DHT22;14032;52.510;7.342;2023-08-21T03:09:39;17.10;99.90
26326;DHT22;14032;52.510;7.342;2023-08-21T03:12:06;17.10;99.90
26326;DHT22;14032;52.510;7.342;2023-08-21T03:14:32;17.10;99.90
26326;DHT22;14032;52.510;7.342;2023-08-21T03:16:57;17.20;99.90
26326;DHT22;14032;52.510;7.342;2023-08-21T03:19:23;17.10;99.90
26326;DHT22;14032;52.510;7.342;2023-08-21T03:21:49;17.10;99.90
26326;DHT22;14032;52.510;7.342;2023-08-21T03:24:14;17.10;99.90
26326;DHT22;14032;52.510;7.342;2023-08-21T03:26:40;17.00;99.90
26326;DHT22;14032;52.510;7.342;2023-08-21T03:29:06;17.00;99.90
26326;DHT22;14032;52.510;7.342;2023-08-21T03:31:31;17.00;99.90
26326;DHT22;14032;52.510;7.342;2023-08-21T03:33:57;16.90;99.90
26326;DHT22;14032;52.510;7.342;2023-08-21T03:36:23;16.90;99.90
26326;DHT22;14032;52.510;7.342;2023-08-21T03:38:59;16.90;99.90
26326;DHT22;14032;52.510;7.342;2023-08-21T03:41:25;16.90;99.90
26326;DHT22;14032;52.510;7.342;2023-08-21T03:43:50;16.80;99.90
26326;DHT22;14032;52.510;7.342;2023-08-21T03:46:16;16.80;99.90
26326;DHT22;14032;52.510;7.342;2023-08-21T03:48:42;16.80;99.90
26326;DHT22;14032;52.510;7.342;2023-08-21T03:51:07;16.80;99.90
26326;DHT22;14032;52.510;7.342;2023-08-21T03:53:33;16.70;99.90
26326;DHT22;14032;52.510;7.342;2023-08-21T03:55:59;16.80;99.90
26326;DHT22;14032;52.510;7.342;2023-08-21T03:58:24;16.70;99.90
26326;DHT22;14032;52.510;7.342;2023-08-21T04:00:53;16.70;99.90
26326;DHT22;14032;52.510;7.342;2023-08-21T04:03:19;16.70;99.90
26326;DHT22;14032;52.510;7.342;2023-08-21T04:05:45;16.60;99.90
26326;DHT22;14032;52.510;7.342;2023-08-21T04:08:11;16.60;99.90
26326;DHT22;14032;52.510;7.342;2023-08-21T04:10:36;16.60;99.90
26326;DHT22;14032;52.510;7.342;2023-08-21T04:13:04;16.50;99.90
26326;DHT22;14032;52.510;7.342;2023-08-21T04:15:29;16.50;99.90
26326;DHT22;14032;52.510;7.342;2023-08-21T04:17:55;16.40;99.90
26326;DHT22;14032;52.510;7.342;2023-08-21T04:20:21;16.40;99.90
26326;DHT22;14032;52.510;7.342;2023-08-21T04:22:47;16.40;99.90
26326;DHT22;14032;52.510;7.342;2023-08-21T04:25:13;16.40;99.90
26326;DHT22;14032;52.510;7.342;2023-08-21T04:27:38;16.40;99.90
26326;DHT22;14032;52.510;7.342;2023-08-21T04:30:04;16.40;99.90
26326;DHT22;14032;52.510;7.342;2023-08-21T04:32:30;16.40;99.90
26326;DHT22;14032;52.510;7.342;2023-08-21T04:34:56;16.30;99.90
26326;DHT22;14032;52.510;7.342;2023-08-21T04:37:22;16.30;99.90
26326;DHT22;14032;52.510;7.342;2023-08-21T04:39:52;16.20;99.90
26326;DHT22;14032;52.510;7.342;2023-08-21T04:42:17;16.20;99.90
26326;DHT22;14032;52.510;7.342;2023-08-21T04:44:43;16.10;99.90
26326;DHT22;14032;52.510;7.342;2023-08-21T04:47:38;16.10;99.90
26326;DHT22;14032;52.510;7.342;2023-08-21T04:50:04;16.10;99.90
26326;DHT22;14032;52.510;7.342;2023-08-21T04:52:29;16.10;99.90
26326;DHT22;14032;52.510;7.342;2023-08-21T04:54:55;16.00;99.90
26326;DHT22;14032;52.510;7.342;2023-08-21T04:57:21;16.10;99.90
26326;DHT22;14032;52.510;7.342;2023-08-21T04:59:47;16.10;99.90
26326;DHT22;14032;52.510;7.342;2023-08-21T05:02:13;16.10;99.90
26326;DHT22;14032;52.510;7.342;2023-08-21T05:04:39;16.10;99.90
26326;DHT22;14032;52.510;7.342;2023-08-21T05:07:04;16.20;99.90
26326;DHT22;14032;52.510;7.342;2023-08-21T05:09:31;16.20;99.90
26326;DHT22;14032;52.510;7.342;2023-08-21T05:11:56;16.30;99.90
26326;DHT22;14032;52.510;7.342;2023-08-21T05:14:22;16.30;99.90
26326;DHT22;14032;52.510;7.342;2023-08-21T05:16:49;16.40;99.90
26326;DHT22;14032;52.510;7.342;2023-08-21T05:19:15;16.50;99.90
26326;DHT22;14032;52.510;7.342;2023-08-21T05:21:41;16.60;99.90
26326;DHT22;14032;52.510;7.342;2023-08-21T05:24:06;16.60;99.90
26326;DHT22;14032;52.510;7.342;2023-08-21T05:26:32;16.70;99.90
26326;DHT22;14032;52.510;7.342;2023-08-21T05:28:57;16.90;99.90
26326;DHT22;14032;52.510;7.342;2023-08-21T05:31:24;17.00;99.90
26326;DHT22;14032;52.510;7.342;2023-08-21T05:33:50;17.10;99.90
26326;DHT22;14032;52.510;7.342;2023-08-21T05:36:15;17.20;99.90
26326;DHT22;14032;52.510;7.342;2023-08-21T05:38:41;17.40;99.90
26326;DHT22;14032;52.510;7.342;2023-08-21T05:41:06;17.50;99.90
26326;DHT22;14032;52.510;7.342;2023-08-21T05:43:33;17.60;99.90
26326;DHT22;14032;52.510;7.342;2023-08-21T05:45:59;17.70;99.90
26326;DHT22;14032;52.510;7.342;2023-08-21T05:48:25;17.80;99.90
26326;DHT22;14032;52.510;7.342;2023-08-21T05:50:51;17.80;99.90
26326;DHT22;14032;52.510;7.342;2023-08-21T05:53:17;17.90;99.90
26326;DHT22;14032;52.510;7.342;2023-08-21T05:55:43;17.80;99.90
26326;DHT22;14032;52.510;7.342;2023-08-21T05:58:08;17.90;99.90
26326;DHT22;14032;52.510;7.342;2023-08-21T06:00:34;17.80;99.90
26326;DHT22;14032;52.510;7.342;2023-08-21T06:03:00;17.80;99.90
26326;DHT22;14032;52.510;7.342;2023-08-21T06:05:26;17.80;99.90
26326;DHT22;14032;52.510;7.342;2023-08-21T06:07:51;17.80;99.90
26326;DHT22;14032;52.510;7.342;2023-08-21T06:10:17;17.80;99.90
26326;DHT22;14032;52.510;7.342;2023-08-21T06:12:43;17.80;99.90
26326;DHT22;14032;52.510;7.342;2023-08-21T06:15:09;17.80;99.90
26326;DHT22;14032;52.510;7.342;2023-08-21T06:17:36;17.80;99.90
26326;DHT22;14032;52.510;7.342;2023-08-21T06:20:02;17.80;99.90
26326;DHT22;14032;52.510;7.342;2023-08-21T06:22:31;17.90;99.90
26326;DHT22;14032;52.510;7.342;2023-08-21T06:24:56;17.90;99.90
26326;DHT22;14032;52.510;7.342;2023-08-21T06:27:22;18.00;99.90
26326;DHT22;14032;52.510;7.342;2023-08-21T06:29:47;18.00;99.90
26326;DHT22;14032;52.510;7.342;2023-08-21T06:32:13;18.10;99.90
26326;DHT22;14032;52.510;7.342;2023-08-21T06:34:38;18.10;99.90
26326;DHT22;14032;52.510;7.342;2023-08-21T06:37:04;18.10;99.90
26326;DHT22;14032;52.510;7.342;2023-08-21T06:39:30;18.20;99.90
26326;DHT22;14032;52.510;7.342;2023-08-21T06:41:56;18.40;99.90
26326;DHT22;14032;52.510;7.342;2023-08-21T06:44:21;18.50;99.90
26326;DHT22;14032;52.510;7.342;2023-08-21T06:46:47;18.50;99.90
26326;DHT22;14032;52.510;7.342;2023-08-21T06:49:13;18.60;99.90
26326;DHT22;14032;52.510;7.342;2023-08-21T06:51:40;18.70;99.90
26326;DHT22;14032;52.510;7.342;2023-08-21T06:54:05;18.80;99.90
26326;DHT22;14032;52.510;7.342;2023-08-21T06:56:31;18.90;99.90
26326;DHT22;14032;52.510;7.342;2023-08-21T06:58:57;19.00;99.90
26326;DHT22;14032;52.510;7.342;2023-08-21T07:01:22;19.10;99.90
26326;DHT22;14032;52.510;7.342;2023-08-21T07:03:48;19.10;99.90
26326;DHT22;14032;52.510;7.342;2023-08-21T07:06:13;19.10;99.90
26326;DHT22;14032;52.510;7.342;2023-08-21T07:08:39;19.20;99.90
26326;DHT22;14032;52.510;7.342;2023-08-21T07:11:06;19.40;99.90
26326;DHT22;14032;52.510;7.342;2023-08-21T07:13:33;19.60;99.90
26326;DHT22;14032;52.510;7.342;2023-08-21T07:15:59;19.70;99.90
26326;DHT22;14032;52.510;7.342;2023-08-21T07:18:28;19.80;99.90
26326;DHT22;14032;52.510;7.342;2023-08-21T07:20:53;19.90;99.90
26326;DHT22;14032;52.510;7.342;2023-08-21T07:23:19;19.90;99.90
26326;DHT22;14032;52.510;7.342;2023-08-21T07:25:45;19.90;99.90
26326;DHT22;14032;52.510;7.342;2023-08-21T07:28:10;20.00;99.90
26326;DHT22;14032;52.510;7.342;2023-08-21T07:30:37;20.10;99.90
26326;DHT22;14032;52.510;7.342;2023-08-21T07:33:04;20.30;99.90
26326;DHT22;14032;52.510;7.342;2023-08-21T07:35:30;20.30;99.90
26326;DHT22;14032;52.510;7.342;2023-08-21T07:37:56;20.40;99.90
26326;DHT22;14032;52.510;7.342;2023-08-21T07:40:21;20.50;99.90
26326;DHT22;14032;52.510;7.342;2023-08-21T07:42:47;20.50;99.90
26326;DHT22;14032;52.510;7.342;2023-08-21T07:45:13;20.50;99.90
26326;DHT22;14032;52.510;7.342;2023-08-21T07:47:38;20.70;99.90
26326;DHT22;14032;52.510;7.342;2023-08-21T07:50:05;20.80;99.90
26326;DHT22;14032;52.510;7.342;2023-08-21T07:52:31;20.80;99.90
26326;DHT22;14032;52.510;7.342;2023-08-21T07:54:56;20.90;99.90
26326;DHT22;14032;52.510;7.342;2023-08-21T07:57:24;21.00;99.90
26326;DHT22;14032;52.510;7.342;2023-08-21T07:59:50;21.10;99.90
26326;DHT22;14032;52.510;7.342;2023-08-21T08:02:15;21.10;99.90
26326;DHT22;14032;52.510;7.342;2023-08-21T08:04:42;21.20;99.90
26326;DHT22;14032;52.510;7.342;2023-08-21T08:07:08;21.30;99.90
26326;DHT22;14032;52.510;7.342;2023-08-21T08:09:34;21.30;99.90
26326;DHT22;14032;52.510;7.342;2023-08-21T08:11:59;21.40;99.90
26326;DHT22;14032;52.510;7.342;2023-08-21T08:14:25;21.40;99.90
26326;DHT22;14032;52.510;7.342;2023-08-21T08:16:50;21.50;99.90
26326;DHT22;14032;52.510;7.342;2023-08-21T08:19:16;21.60;99.90
26326;DHT22;14032;52.510;7.342;2023-08-21T08:21:42;21.60;99.90
26326;DHT22;14032;52.510;7.342;2023-08-21T08:24:07;21.70;99.90
26326;DHT22;14032;52.510;7.342;2023-08-21T08:26:33;21.70;99.90
26326;DHT22;14032;52.510;7.342;2023-08-21T08:28:58;21.60;99.90
26326;DHT22;14032;52.510;7.342;2023-08-21T08:31:24;21.60;99.90
26326;DHT22;14032;52.510;7.342;2023-08-21T08:33:51;21.60;99.90
26326;DHT22;14032;52.510;7.342;2023-08-21T08:36:17;21.60;99.90
26326;DHT22;14032;52.510;7.342;2023-08-21T08:38:43;21.70;99.90
26326;DHT22;14032;52.510;7.342;2023-08-21T08:41:17;21.90;99.90
26326;DHT22;14032;52.510;7.342;2023-08-21T08:43:45;22.10;99.90
26326;DHT22;14032;52.510;7.342;2023-08-21T08:46:11;22.20;99.90
26326;DHT22;14032;52.510;7.342;2023-08-21T08:48:37;22.30;99.90
26326;DHT22;14032;52.510;7.342;2023-08-21T08:51:04;22.40;99.90
26326;DHT22;14032;52.510;7.342;2023-08-21T08:53:30;22.50;99.90
26326;DHT22;14032;52.510;7.342;2023-08-21T08:55:57;22.50;99.90
26326;DHT22;14032;52.510;7.342;2023-08-21T08:58:23;22.50;99.90
26326;DHT22;14032;52.510;7.342;2023-08-21T09:00:49;22.40;99.90
26326;DHT22;14032;52.510;7.342;2023-08-21T09:03:15;22.20;99.90
26326;DHT22;14032;52.510;7.342;2023-08-21T09:05:41;22.20;99.90
26326;DHT22;14032;52.510;7.342;2023-08-21T09:10:32;22.00;99.90
26326;DHT22;14032;52.510;7.342;2023-08-21T09:12:58;21.90;99.90
26326;DHT22;14032;52.510;7.342;2023-08-21T09:15:30;21.90;99.90
26326;DHT22;14032;52.510;7.342;2023-08-21T09:17:55;21.80;99.90
26326;DHT22;14032;52.510;7.342;2023-08-21T09:20:22;21.80;99.90
26326;DHT22;14032;52.510;7.342;2023-08-21T09:22:56;21.90;99.90
26326;DHT22;14032;52.510;7.342;2023-08-21T09:25:23;22.00;99.90
26326;DHT22;14032;52.510;7.342;2023-08-21T09:27:52;22.00;99.90
26326;DHT22;14032;52.510;7.342;2023-08-21T09:30:19;22.20;99.90
26326;DHT22;14032;52.510;7.342;2023-08-21T09:32:57;22.20;99.90
26326;DHT22;14032;52.510;7.342;2023-08-21T09:35:25;22.30;99.90
26326;DHT22;14032;52.510;7.342;2023-08-21T09:37:51;22.30;99.90
26326;DHT22;14032;52.510;7.342;2023-08-21T09:40:23;22.40;99.90
26326;DHT22;14032;52.510;7.342;2023-08-21T09:42:53;22.50;99.90
26326;DHT22;14032;52.510;7.342;2023-08-21T09:45:23;22.60;99.90
26326;DHT22;14032;52.510;7.342;2023-08-21T09:47:51;22.70;99.90
26326;DHT22;14032;52.510;7.342;2023-08-21T09:50:18;22.70;99.90
26326;DHT22;14032;52.510;7.342;2023-08-21T09:52:45;22.80;99.90
26326;DHT22;14032;52.510;7.342;2023-08-21T09:55:13;22.90;99.90
26326;DHT22;14032;52.510;7.342;2023-08-21T09:57:39;22.90;99.90
26326;DHT22;14032;52.510;7.342;2023-08-21T10:00:07;22.90;99.90
26326;DHT22;14032;52.510;7.342;2023-08-21T10:02:50;22.80;99.90
26326;DHT22;14032;52.510;7.342;2023-08-21T10:05:19;22.80;99.90
26326;DHT22;14032;52.510;7.342;2023-08-21T10:07:49;22.80;99.90
26326;DHT22;14032;52.510;7.342;2023-08-21T10:10:15;23.00;99.90
26326;DHT22;14032;52.510;7.342;2023-08-21T10:12:41;23.20;99.90
26326;DHT22;14032;52.510;7.342;2023-08-21T10:15:08;23.20;99.90
26326;DHT22;14032;52.510;7.342;2023-08-21T10:17:37;23.30;99.90
26326;DHT22;14032;52.510;7.342;2023-08-21T10:20:07;23.40;99.90
26326;DHT22;14032;52.510;7.342;2023-08-21T10:22:44;23.50;99.90
26326;DHT22;14032;52.510;7.342;2023-08-21T10:27:43;23.80;99.90
26326;DHT22;14032;52.510;7.342;2023-08-21T10:30:19;23.80;99.90
26326;DHT22;14032;52.510;7.342;2023-08-21T10:32:50;23.90;99.90
26326;DHT22;14032;52.510;7.342;2023-08-21T10:35:18;23.90;99.90
26326;DHT22;14032;52.510;7.342;2023-08-21T10:38:09;23.90;99.90
26326;DHT22;14032;52.510;7.342;2023-08-21T10:40:37;23.90;99.90
26326;DHT22;14032;52.510;7.342;2023-08-21T10:43:04;24.00;99.90
26326;DHT22;14032;52.510;7.342;2023-08-21T10:45:30;24.10;99.90
26326;DHT22;14032;52.510;7.342;2023-08-21T10:47:59;24.30;99.90
26326;DHT22;14032;52.510;7.342;2023-08-21T10:50:25;24.50;99.90
26326;DHT22;14032;52.510;7.342;2023-08-21T10:52:58;24.70;99.90
26326;DHT22;14032;52.510;7.342;2023-08-21T10:55:25;24.70;99.40
26326;DHT22;14032;52.510;7.342;2023-08-21T10:57:50;24.60;99.70
26326;DHT22;14032;52.510;7.342;2023-08-21T11:00:18;24.60;99.90
26326;DHT22;14032;52.510;7.342;2023-08-21T11:02:45;24.70;99.80
26326;DHT22;14032;52.510;7.342;2023-08-21T11:05:12;24.70;99.90
26326;DHT22;14032;52.510;7.342;2023-08-21T11:07:43;24.80;99.90
26326;DHT22;14032;52.510;7.342;2023-08-21T11:10:23;24.70;99.90
26326;DHT22;14032;52.510;7.342;2023-08-21T11:12:52;24.60;99.90
26326;DHT22;14032;52.510;7.342;2023-08-21T11:15:19;24.50;99.90
26326;DHT22;14032;52.510;7.342;2023-08-21T11:17:57;24.50;99.90
26326;DHT22;14032;52.510;7.342;2023-08-21T11:20:31;24.50;99.90
26326;DHT22;14032;52.510;7.342;2023-08-21T11:22:58;24.50;99.90
26326;DHT22;14032;52.510;7.342;2023-08-21T11:25:24;24.60;99.90
26326;DHT22;14032;52.510;7.342;2023-08-21T11:27:50;24.70;99.90
26326;DHT22;14032;52.510;7.342;2023-08-21T11:30:15;24.70;99.90
26326;DHT22;14032;52.510;7.342;2023-08-21T11:32:41;24.80;99.30
26326;DHT22;14032;52.510;7.342;2023-08-21T11:35:07;24.80;99.20
26326;DHT22;14032;52.510;7.342;2023-08-21T11:37:33;24.70;98.40
26326;DHT22;14032;52.510;7.342;2023-08-21T11:39:58;24.60;99.10
26326;DHT22;14032;52.510;7.342;2023-08-21T11:42:32;24.50;99.90
26326;DHT22;14032;52.510;7.342;2023-08-21T11:44:59;24.30;99.90
26326;DHT22;14032;52.510;7.342;2023-08-21T11:47:30;24.20;99.90
26326;DHT22;14032;52.510;7.342;2023-08-21T11:49:56;24.00;99.90
26326;DHT22;14032;52.510;7.342;2023-08-21T11:52:23;23.80;99.90
26326;DHT22;14032;52.510;7.342;2023-08-21T11:54:54;23.70;99.90
26326;DHT22;14032;52.510;7.342;2023-08-21T11:57:20;23.70;99.90
26326;DHT22;14032;52.510;7.342;2023-08-21T11:59:53;23.70;99.90
26326;DHT22;14032;52.510;7.342;2023-08-21T12:02:26;23.70;99.90
26326;DHT22;14032;52.510;7.342;2023-08-21T12:05:14;23.70;99.90
26326;DHT22;14032;52.510;7.342;2023-08-21T12:07:40;23.80;99.90
26326;DHT22;14032;52.510;7.342;2023-08-21T12:10:06;23.80;99.90
26326;DHT22;14032;52.510;7.342;2023-08-21T12:12:31;23.80;99.90
26326;DHT22;14032;52.510;7.342;2023-08-21T12:14:57;23.90;99.90
26326;DHT22;14032;52.510;7.342;2023-08-21T12:17:22;24.00;99.90
26326;DHT22;14032;52.510;7.342;2023-08-21T12:19:48;24.10;99.90
26326;DHT22;14032;52.510;7.342;2023-08-21T12:22:14;24.20;99.20
26326;DHT22;14032;52.510;7.342;2023-08-21T12:24:39;24.30;98.50
26326;DHT22;14032;52.510;7.342;2023-08-21T12:27:06;24.40;99.20
26326;DHT22;14032;52.510;7.342;2023-08-21T12:29:32;24.40;98.50
26326;DHT22;14032;52.510;7.342;2023-08-21T12:31:57;24.40;99.30
26326;DHT22;14032;52.510;7.342;2023-08-21T12:34:23;24.50;99.30
26326;DHT22;14032;52.510;7.342;2023-08-21T12:36:50;24.50;99.30
26326;DHT22;14032;52.510;7.342;2023-08-21T12:39:16;24.50;98.80
26326;DHT22;14032;52.510;7.342;2023-08-21T12:41:43;24.40;98.20
26326;DHT22;14032;52.510;7.342;2023-08-21T12:44:09;24.40;98.90
26326;DHT22;14032;52.510;7.342;2023-08-21T12:46:38;24.30;98.30
26326;DHT22;14032;52.510;7.342;2023-08-21T12:49:03;24.20;97.50
26326;DHT22;14032;52.510;7.342;2023-08-21T12:51:30;24.10;98.80
26326;DHT22;14032;52.510;7.342;2023-08-21T12:53:55;24.00;98.40
26326;DHT22;14032;52.510;7.342;2023-08-21T12:56:21;23.90;98.80
26326;DHT22;14032;52.510;7.342;2023-08-21T12:58:47;23.90;99.10
26326;DHT22;14032;52.510;7.342;2023-08-21T13:01:13;23.80;99.60
26326;DHT22;14032;52.510;7.342;2023-08-21T13:03:39;23.80;99.70
26326;DHT22;14032;52.510;7.342;2023-08-21T13:06:04;23.80;98.80
26326;DHT22;14032;52.510;7.342;2023-08-21T13:08:30;23.80;98.50
26326;DHT22;14032;52.510;7.342;2023-08-21T13:10:56;23.80;99.00
26326;DHT22;14032;52.510;7.342;2023-08-21T13:13:21;23.80;98.30
26326;DHT22;14032;52.510;7.342;2023-08-21T13:15:47;23.80;98.20
26326;DHT22;14032;52.510;7.342;2023-08-21T13:18:13;23.80;97.80
26326;DHT22;14032;52.510;7.342;2023-08-21T13:20:41;23.90;97.70
26326;DHT22;14032;52.510;7.342;2023-08-21T13:23:07;23.90;98.30
26326;DHT22;14032;52.510;7.342;2023-08-21T13:25:33;23.90;96.00
26326;DHT22;14032;52.510;7.342;2023-08-21T13:28:00;23.90;96.50
26326;DHT22;14032;52.510;7.342;2023-08-21T13:30:26;23.80;97.00
26326;DHT22;14032;52.510;7.342;2023-08-21T13:32:52;23.80;97.50
26326;DHT22;14032;52.510;7.342;2023-08-21T13:35:18;23.80;98.00
26326;DHT22;14032;52.510;7.342;2023-08-21T13:37:45;23.80;98.50
26326;DHT22;14032;52.510;7.342;2023-08-21T13:40:10;23.80;98.90
26326;DHT22;14032;52.510;7.342;2023-08-21T13:42:40;23.80;99.30
26326;DHT22;14032;52.510;7.342;2023-08-21T13:45:10;23.80;99.90
26326;DHT22;14032;52.510;7.342;2023-08-21T13:47:46;23.90;99.90
26326;DHT22;14032;52.510;7.342;2023-08-21T13:50:13;24.00;99.90
26326;DHT22;14032;52.510;7.342;2023-08-21T13:52:40;24.00;98.70
26326;DHT22;14032;52.510;7.342;2023-08-21T13:55:06;24.00;98.80
26326;DHT22;14032;52.510;7.342;2023-08-21T13:57:32;24.00;99.20
26326;DHT22;14032;52.510;7.342;2023-08-21T13:59:59;24.00;99.30
26326;DHT22;14032;52.510;7.342;2023-08-21T14:02:24;24.00;99.90
26326;DHT22;14032;52.510;7.342;2023-08-21T14:04:50;24.00;99.90
26326;DHT22;14032;52.510;7.342;2023-08-21T14:07:16;24.10;99.90
26326;DHT22;14032;52.510;7.342;2023-08-21T14:09:41;24.10;99.90
26326;DHT22;14032;52.510;7.342;2023-08-21T14:12:08;24.10;99.90
26326;DHT22;14032;52.510;7.342;2023-08-21T14:14:35;24.10;99.90
26326;DHT22;14032;52.510;7.342;2023-08-21T14:17:00;24.10;99.90
26326;DHT22;14032;52.510;7.342;2023-08-21T14:19:26;24.10;99.90
26326;DHT22;14032;52.510;7.342;2023-08-21T14:24:25;24.10;99.90
26326;DHT22;14032;52.510;7.342;2023-08-21T14:26:52;24.10;99.90
26326;DHT22;14032;52.510;7.342;2023-08-21T14:29:18;24.10;99.90
26326;DHT22;14032;52.510;7.342;2023-08-21T14:31:43;24.00;99.90
26326;DHT22;14032;52.510;7.342;2023-08-21T14:34:10;24.00;99.90
26326;DHT22;14032;52.510;7.342;2023-08-21T14:36:35;24.00;99.90
26326;DHT22;14032;52.510;7.342;2023-08-21T14:39:01;24.00;99.90
26326;DHT22;14032;52.510;7.342;2023-08-21T14:41:29;23.90;99.90
26326;DHT22;14032;52.510;7.342;2023-08-21T15:50:55;24.10;99.90
26326;DHT22;14032;52.510;7.342;2023-08-21T15:53:20;24.40;99.90
26326;DHT22;14032;52.510;7.342;2023-08-21T15:55:46;24.40;99.90
26326;DHT22;14032;52.510;7.342;2023-08-21T15:58:11;24.30;99.90
26326;DHT22;14032;52.510;7.342;2023-08-21T16:00:37;24.30;99.90
26326;DHT22;14032;52.510;7.342;2023-08-21T16:03:03;24.20;99.90
26326;DHT22;14032;52.510;7.342;2023-08-21T16:05:30;24.20;99.80
26326;DHT22;14032;52.510;7.342;2023-08-21T16:07:55;24.20;99.90
26326;DHT22;14032;52.510;7.342;2023-08-21T16:10:21;24.20;99.90
26326;DHT22;14032;52.510;7.342;2023-08-21T16:12:47;24.20;99.90
26326;DHT22;14032;52.510;7.342;2023-08-21T16:15:12;24.20;99.90
26326;DHT22;14032;52.510;7.342;2023-08-21T16:17:38;24.20;99.90
26326;DHT22;14032;52.510;7.342;2023-08-21T16:20:04;24.20;99.90
26326;DHT22;14032;52.510;7.342;2023-08-21T16:22:31;24.30;99.90
26326;DHT22;14032;52.510;7.342;2023-08-21T16:24:56;24.30;99.90
26326;DHT22;14032;52.510;7.342;2023-08-21T16:27:22;24.30;99.90
26326;DHT22;14032;52.510;7.342;2023-08-21T16:29:48;24.30;99.90
26326;DHT22;14032;52.510;7.342;2023-08-21T16:32:13;24.30;99.90
26326;DHT22;14032;52.510;7.342;2023-08-21T16:34:39;24.30;99.90
26326;DHT22;14032;52.510;7.342;2023-08-21T16:37:04;24.20;99.90
26326;DHT22;14032;52.510;7.342;2023-08-21T16:39:30;24.20;99.90
26326;DHT22;14032;52.510;7.342;2023-08-21T16:41:56;24.20;99.90
26326;DHT22;14032;52.510;7.342;2023-08-21T16:44:21;24.10;99.90
26326;DHT22;14032;52.510;7.342;2023-08-21T16:46:48;24.10;99.90
26326;DHT22;14032;52.510;7.342;2023-08-21T16:49:14;24.10;99.90